Time;durP1;ratioP1;P1;durP2;ratioP2;P2;SDS_P1;SDS_P2;PMS_P1;PMS_P2;Temp;Humidity;BMP_temperature;BMP_pressure;BME280_temperature;BME280_humidity;BME280_pressure;Samples;Min_cycle;Max_cycle;Signal;HPM_P1;HPM_P2
2021/08/21 00:01:56;;;;;;;9.20;7.03;;;15.00;99.90;;;16.16;100.00;100801.78;6154955;23;20025;-84
2021/08/21 00:04:22;;;;;;;11.75;7.50;;;14.90;99.90;;;16.12;100.00;100800.13;6156817;23;20001;-85
2021/08/21 00:06:48;;;;;;;10.45;7.25;;;14.80;99.90;;;16.05;100.00;100800.91;6156692;23;20056;-85
2021/08/21 00:09:14;;;;;;;7.93;6.82;;;14.90;99.90;;;16.05;100.00;100802.94;6157520;23;20014;-85
2021/08/21 00:11:41;;;;;;;8.55;7.00;;;14.80;99.90;;;15.98;100.00;100802.88;6156467;23;20010;-86
2021/08/21 00:14:07;;;;;;;7.60;6.43;;;14.70;99.90;;;15.95;100.00;100803.66;6131993;23;20009;-85
2021/08/21 00:16:34;;;;;;;12.98;7.93;;;14.70;99.90;;;15.92;100.00;100801.63;6132333;23;20037;-87
2021/08/21 00:19:01;;;;;;;14.98;8.13;;;14.70;99.90;;;15.90;100.00;100804.81;6131841;23;20432;-85
2021/08/21 00:21:27;;;;;;;12.38;7.85;;;14.70;99.90;;;15.93;100.00;100800.41;6132095;23;20008;-86
2021/08/21 00:23:53;;;;;;;10.13;7.85;;;14.70;99.90;;;15.92;100.00;100793.97;6132041;23;20053;-85
2021/08/21 00:26:19;;;;;;;9.90;7.57;;;14.70;99.90;;;15.94;100.00;100799.22;6132188;23;20049;-86
2021/08/21 00:28:45;;;;;;;13.35;7.80;;;14.70;99.90;;;15.92;100.00;100802.44;6132053;23;20014;-86
2021/08/21 00:31:11;;;;;;;11.65;8.05;;;14.70;99.90;;;15.88;100.00;100804.41;6133136;23;20010;-86
2021/08/21 00:33:38;;;;;;;10.07;7.45;;;14.70;99.90;;;15.90;100.00;100802.00;6159631;23;20012;-88
2021/08/21 00:36:04;;;;;;;9.65;7.47;;;14.60;99.90;;;15.91;100.00;100798.00;6134450;23;20065;-88
2021/08/21 00:38:30;;;;;;;9.95;7.13;;;14.60;99.90;;;15.88;100.00;100797.97;6143127;23;20010;-87
2021/08/21 00:40:56;;;;;;;9.75;7.47;;;14.60;99.90;;;15.83;100.00;100797.13;6135581;23;20017;-86
2021/08/21 00:43:22;;;;;;;10.27;7.13;;;14.60;99.90;;;15.80;100.00;100803.53;6159070;23;20005;-86
2021/08/21 00:45:48;;;;;;;12.38;7.22;;;14.50;99.90;;;15.80;100.00;100805.53;6132655;23;20016;-89
2021/08/21 00:48:15;;;;;;;10.70;7.40;;;14.50;99.90;;;15.78;100.00;100793.84;6133335;23;20009;-87
2021/08/21 00:50:42;;;;;;;10.45;8.25;;;14.50;99.90;;;15.77;100.00;100795.03;6133349;23;20009;-87
2021/08/21 00:53:08;;;;;;;10.63;7.97;;;14.50;99.90;;;15.77;100.00;100793.03;6131447;23;20020;-86
2021/08/21 00:55:35;;;;;;;9.27;6.80;;;14.50;99.90;;;15.75;100.00;100798.25;6130668;23;20064;-86
2021/08/21 00:58:04;;;;;;;9.55;6.82;;;14.50;99.90;;;15.71;100.00;100793.78;6130935;23;20033;-87
2021/08/21 01:00:30;;;;;;;11.63;7.10;;;14.50;99.90;;;15.65;100.00;100804.63;6135108;23;20005;-85
2021/08/21 01:02:56;;;;;;;12.73;8.50;;;14.40;99.90;;;15.60;100.00;100804.16;6160941;23;20005;-86
2021/08/21 01:05:23;;;;;;;9.25;7.15;;;14.40;99.90;;;15.61;100.00;100800.94;6161338;23;20394;-87
2021/08/21 01:07:48;;;;;;;9.55;7.57;;;14.40;99.90;;;15.59;100.00;100796.91;6185242;23;20005;-85
2021/08/21 01:10:19;;;;;;;10.05;7.63;;;14.40;99.90;;;15.55;100.00;100799.69;6160339;23;20101;-85
2021/08/21 01:12:50;;;;;;;16.08;8.25;;;14.30;99.90;;;15.54;100.00;100805.72;6185253;23;20005;-86
2021/08/21 01:15:22;;;;;;;14.63;8.25;;;14.30;99.90;;;15.43;100.00;100799.94;6160711;23;20016;-85
2021/08/21 01:17:52;;;;;;;10.27;7.63;;;14.40;99.90;;;15.48;100.00;100802.44;6160876;23;20066;-84
2021/08/21 01:20:18;;;;;;;13.65;8.02;;;14.30;99.90;;;15.52;100.00;100803.28;6186062;23;20423;-85
2021/08/21 01:22:44;;;;;;;11.38;7.28;;;14.30;99.90;;;15.53;100.00;100795.66;6161599;23;20012;-87
2021/08/21 01:25:20;;;;;;;12.82;8.98;;;14.30;99.90;;;15.51;100.00;100792.44;6160867;23;20005;-83
2021/08/21 01:27:46;;;;;;;;;;;14.30;99.90;;;15.53;100.00;100802.09;6161373;23;20005;-86
2021/08/21 01:30:13;;;;;;;12.55;8.73;;;14.30;99.90;;;15.51;100.00;100796.03;6185719;23;19915;-86
2021/08/21 01:32:40;;;;;;;10.68;7.85;;;14.30;99.90;;;15.49;100.00;100803.25;6187560;23;20005;-84
2021/08/21 01:35:08;;;;;;;13.90;9.30;;;14.30;99.90;;;15.50;100.00;100804.88;6161132;23;20013;-86
2021/08/21 01:37:34;;;;;;;14.18;10.23;;;14.30;99.90;;;15.49;100.00;100794.81;6161048;23;20028;-87
2021/08/21 01:40:01;;;;;;;12.88;9.88;;;14.30;99.90;;;15.48;100.00;100801.63;6188380;23;20005;-86
2021/08/21 01:42:27;;;;;;;11.68;8.23;;;14.30;99.90;;;15.46;100.00;100807.63;6162293;23;20032;-87
2021/08/21 01:44:53;;;;;;;10.95;9.18;;;14.20;99.90;;;15.45;100.00;100791.91;6211190;23;20017;-87
2021/08/21 01:47:21;;;;;;;11.73;8.65;;;14.30;99.90;;;15.44;100.00;100806.41;6210700;23;20040;-86
2021/08/21 01:50:04;;;;;;;12.13;8.25;;;14.20;99.90;;;15.38;100.00;100805.13;6186010;23;20012;-86
2021/08/21 01:52:30;;;;;;;12.02;7.57;;;14.10;99.90;;;15.33;100.00;100800.66;6185896;23;20029;-88
2021/08/21 01:54:56;;;;;;;9.65;7.57;;;14.10;99.90;;;15.26;100.00;100801.38;6185897;23;20009;-87
2021/08/21 01:57:22;;;;;;;11.85;7.97;;;14.00;99.90;;;15.21;100.00;100798.94;6200914;23;20069;-86
2021/08/21 01:59:52;;;;;;;11.35;7.90;;;14.00;99.90;;;15.14;100.00;100792.41;6168688;23;20443;-82
2021/08/21 02:02:22;;;;;;;11.25;7.82;;;14.00;99.90;;;15.09;100.00;100796.38;6189984;23;20530;-85
2021/08/21 02:04:48;;;;;;;10.55;7.72;;;13.90;99.90;;;15.05;100.00;100791.91;6186525;23;20138;-85
2021/08/21 02:07:13;;;;;;;12.30;8.07;;;13.80;99.90;;;15.03;100.00;100797.91;6161864;23;20084;-83
2021/08/21 02:09:39;;;;;;;11.05;8.00;;;13.80;99.90;;;15.05;100.00;100801.16;6162519;23;20028;-85
2021/08/21 02:12:07;;;;;;;9.30;7.63;;;13.90;99.90;;;15.04;100.00;100791.09;6161791;23;20012;-86
2021/08/21 02:14:34;;;;;;;12.40;7.75;;;13.80;99.90;;;15.03;100.00;100786.66;6161827;23;20032;-84
2021/08/21 02:17:03;;;;;;;12.77;8.23;;;13.80;99.90;;;15.00;100.00;100792.25;6161664;23;20196;-84
2021/08/21 02:19:30;;;;;;;13.98;8.50;;;13.80;99.90;;;14.98;100.00;100791.81;6162433;23;20186;-85
2021/08/21 02:22:02;;;;;;;11.90;9.43;;;13.80;99.90;;;14.98;100.00;100792.66;6186818;23;20088;-84
2021/08/21 02:24:29;;;;;;;12.48;8.35;;;13.80;99.90;;;14.94;100.00;100793.78;6162237;23;20004;-82
2021/08/21 02:27:00;;;;;;;13.70;8.45;;;13.70;99.90;;;14.89;100.00;100799.75;6162591;23;20029;-85
2021/08/21 02:29:29;;;;;;;16.35;8.70;;;13.70;99.90;;;14.86;100.00;100790.09;6162679;23;20009;-84
2021/08/21 02:31:56;;;;;;;10.88;8.55;;;13.70;99.90;;;14.85;100.00;100794.09;6162281;23;20068;-86
2021/08/21 02:34:25;;;;;;;10.65;7.88;;;13.70;99.90;;;14.84;100.00;100794.47;6163162;23;20017;-86
2021/08/21 02:36:52;;;;;;;12.98;8.13;;;13.60;99.90;;;14.82;100.00;100791.22;6163170;23;20009;-87
2021/08/21 02:39:20;;;;;;;13.20;8.65;;;13.60;99.90;;;14.77;100.00;100787.56;6163318;23;20005;-85
2021/08/21 02:41:47;;;;;;;12.20;8.07;;;13.60;99.90;;;14.73;100.00;100785.91;6187922;23;20092;-86
2021/08/21 02:44:13;;;;;;;12.95;9.00;;;13.50;99.90;;;14.69;100.00;100782.25;6164172;23;20055;-86
2021/08/21 02:46:39;;;;;;;12.20;9.05;;;13.50;99.90;;;14.67;100.00;100788.25;6164508;23;20287;-86
2021/08/21 02:49:04;;;;;;;10.68;7.95;;;13.50;99.90;;;14.66;100.00;100789.44;6164258;23;20009;-88
2021/08/21 02:51:30;;;;;;;10.85;8.18;;;13.50;99.90;;;14.63;100.00;100790.22;6199464;23;20009;-87
2021/08/21 02:53:56;;;;;;;11.52;8.48;;;13.40;99.90;;;14.62;100.00;100782.16;6172639;23;20009;-88
2021/08/21 02:56:22;;;;;;;13.82;8.65;;;13.40;99.90;;;14.59;100.00;100785.72;6166765;23;20009;-88
2021/08/21 02:58:48;;;;;;;12.02;7.70;;;13.40;99.90;;;14.55;100.00;100788.50;6166102;23;20060;-88
2021/08/21 03:01:13;;;;;;;13.88;9.02;;;13.30;99.90;;;14.51;100.00;100784.81;6162133;23;20365;-88
2021/08/21 03:03:39;;;;;;;10.05;7.57;;;13.30;99.90;;;14.46;100.00;100792.78;6160321;23;20112;-87
2021/08/21 03:06:05;;;;;;;14.45;8.18;;;13.30;99.90;;;14.38;100.00;100785.44;6158530;23;20037;-85
2021/08/21 03:08:31;;;;;;;13.13;8.18;;;13.20;99.90;;;14.33;100.00;100782.94;6135445;23;20010;-87
2021/08/21 03:10:58;;;;;;;11.70;8.23;;;13.10;99.90;;;14.29;100.00;100784.91;6157958;23;20013;-87
2021/08/21 03:13:26;;;;;;;12.45;8.45;;;13.10;99.90;;;14.26;100.00;100784.44;6157578;23;20013;-87
2021/08/21 03:15:53;;;;;;;14.18;8.65;;;13.10;99.90;;;14.24;100.00;100783.22;6158761;23;20259;-87
2021/08/21 03:18:19;;;;;;;14.88;9.38;;;13.10;99.90;;;14.21;100.00;100787.59;6157080;23;20088;-84
2021/08/21 03:20:46;;;;;;;12.32;9.13;;;13.10;99.90;;;14.22;100.00;100786.41;6158253;23;20340;-85
2021/08/21 03:23:12;;;;;;;13.02;8.95;;;13.00;99.90;;;14.23;100.00;100785.22;6158234;23;20028;-85
2021/08/21 03:25:38;;;;;;;14.38;9.20;;;13.10;99.90;;;14.24;100.00;100789.66;6157109;23;20021;-85
2021/08/21 03:28:05;;;;;;;12.20;8.85;;;13.00;99.90;;;14.24;100.00;100792.47;6158716;23;20506;-86
2021/08/21 03:30:31;;;;;;;13.63;8.30;;;13.00;99.90;;;14.25;100.00;100791.25;6156930;23;20109;-88
2021/08/21 03:32:59;;;;;;;12.82;8.68;;;13.00;99.90;;;14.25;100.00;100787.66;6159843;23;20064;-85
2021/08/21 03:35:25;;;;;;;13.68;9.10;;;13.00;99.90;;;14.20;100.00;100783.16;6158343;23;20064;-87
2021/08/21 03:37:53;;;;;;;9.95;7.95;;;13.00;99.90;;;14.17;100.00;100785.91;6132783;23;20427;-87
2021/08/21 03:40:29;;;;;;;12.30;8.32;;;13.00;99.90;;;14.12;100.00;100789.88;6132984;23;20340;-84
2021/08/21 03:42:55;;;;;;;14.75;9.45;;;12.90;99.90;;;14.11;100.00;100788.25;6158012;23;20029;-87
2021/08/21 03:45:21;;;;;;;12.82;8.60;;;12.90;99.90;;;14.08;100.00;100793.81;6159584;23;20012;-87
2021/08/21 03:47:47;;;;;;;11.25;7.80;;;12.80;99.90;;;14.07;100.00;100786.56;6158211;23;20009;-89
2021/08/21 03:50:13;;;;;;;14.95;9.90;;;12.80;99.90;;;14.05;100.00;100788.94;6157060;23;20010;-85
2021/08/21 03:52:42;;;;;;;21.10;11.50;;;12.90;99.90;;;14.17;100.00;100794.34;6159656;23;20008;-84
2021/08/21 03:55:09;;;;;;;25.05;14.90;;;12.90;99.90;;;14.35;100.00;100791.84;6159369;23;20435;-85
2021/08/21 03:57:36;;;;;;;20.15;13.02;;;13.10;99.90;;;14.47;100.00;100786.78;6159168;23;20009;-87
2021/08/21 04:00:05;;;;;;;20.25;11.82;;;13.20;99.90;;;14.53;100.00;100795.69;6158494;23;20013;-86
2021/08/21 04:02:31;;;;;;;15.40;9.98;;;13.30;99.90;;;14.45;100.00;100785.56;6189169;23;20450;-86
2021/08/21 04:05:00;;;;;;;14.30;9.95;;;13.20;99.90;;;14.35;100.00;100789.84;6164839;23;20009;-85
2021/08/21 04:07:26;;;;;;;14.20;9.80;;;13.20;99.90;;;14.34;100.00;100790.22;6165664;23;20419;-86
2021/08/21 04:09:52;;;;;;;15.60;10.65;;;13.10;99.90;;;14.29;100.00;100785.69;6165715;23;20545;-86
2021/08/21 04:12:18;;;;;;;16.08;9.95;;;13.10;99.90;;;14.25;100.00;100791.25;6191450;23;20032;-86
2021/08/21 04:14:46;;;;;;;22.98;13.40;;;13.10;99.90;;;14.26;100.00;100792.88;6166013;23;20001;-87
2021/08/21 04:17:14;;;;;;;25.40;16.13;;;13.10;99.90;;;14.48;100.00;100787.59;6166567;23;20041;-84
2021/08/21 04:19:40;;;;;;;21.00;13.40;;;13.30;99.90;;;14.61;100.00;100788.94;6166409;23;20008;-87
2021/08/21 04:22:06;;;;;;;17.42;10.60;;;13.30;99.90;;;14.61;100.00;100788.94;6166236;23;20009;-87
2021/08/21 04:24:32;;;;;;;14.65;10.15;;;13.30;99.90;;;14.56;100.00;100784.50;6191535;23;20097;-88
2021/08/21 04:26:58;;;;;;;17.20;10.75;;;13.30;99.90;;;14.56;100.00;100787.31;6192113;23;20009;-85
2021/08/21 04:29:23;;;;;;;15.45;11.65;;;13.30;99.90;;;14.60;100.00;100790.97;6166142;23;20005;-85
2021/08/21 04:31:49;;;;;;;21.48;11.73;;;13.40;99.90;;;14.58;100.00;100789.72;6190648;23;20020;-86
2021/08/21 04:34:15;;;;;;;17.20;10.55;;;13.30;99.90;;;14.50;100.00;100790.84;6165241;23;20013;-86
2021/08/21 04:36:41;;;;;;;14.77;10.57;;;13.20;99.90;;;14.46;100.00;100793.59;6189249;23;20009;-85
2021/08/21 04:39:07;;;;;;;17.85;9.73;;;13.20;99.90;;;14.46;100.00;100789.97;6189193;23;20009;-86
2021/08/21 04:41:33;;;;;;;14.13;8.77;;;13.20;99.90;;;14.48;100.00;100793.22;6190648;23;20013;-86
2021/08/21 04:43:59;;;;;;;16.17;10.57;;;13.20;99.90;;;14.52;100.00;100805.31;6191049;23;20093;-86
2021/08/21 04:46:26;;;;;;;21.45;10.57;;;13.20;99.90;;;14.58;100.00;100800.97;6189005;23;20155;-85
2021/08/21 04:48:52;;;;;;;19.75;11.98;;;13.20;99.90;;;14.64;100.00;100794.63;6164612;23;20032;-85
2021/08/21 04:51:17;;;;;;;18.15;11.15;;;13.30;99.90;;;14.73;100.00;100792.34;6165521;23;20431;-85
2021/08/21 04:53:45;;;;;;;18.10;11.38;;;13.40;99.90;;;14.81;100.00;100793.22;6165666;23;20435;-85
2021/08/21 04:56:11;;;;;;;16.75;11.27;;;13.50;99.90;;;14.86;100.00;100803.34;6191962;23;20432;-86
2021/08/21 04:58:37;;;;;;;13.27;9.93;;;13.50;99.90;;;14.94;100.00;100799.41;6167072;23;20016;-84
2021/08/21 05:01:03;;;;;;;15.88;9.38;;;13.60;99.90;;;15.01;100.00;100803.13;6162129;23;20014;-85
2021/08/21 05:03:28;;;;;;;15.77;11.90;;;13.70;99.90;;;15.10;100.00;100809.25;6160847;23;20005;-90
2021/08/21 05:05:54;;;;;;;17.42;10.95;;;13.80;99.90;;;15.22;100.00;100808.97;6161045;23;20032;-86
2021/08/21 05:08:21;;;;;;;18.27;11.30;;;13.90;99.90;;;15.32;100.00;100808.28;6174163;23;20012;-86
2021/08/21 05:10:47;;;;;;;21.00;13.00;;;13.90;99.90;;;15.44;100.00;100818.47;6163541;23;20005;-85
2021/08/21 05:13:13;;;;;;;26.15;15.13;;;14.00;99.90;;;15.58;100.00;100818.63;6159820;23;20040;-87
2021/08/21 05:15:40;;;;;;;24.45;15.23;;;14.20;99.90;;;15.74;100.00;100812.72;6160271;23;20483;-88
2021/08/21 05:18:07;;;;;;;24.38;15.52;;;14.30;99.90;;;15.88;100.00;100820.50;6160351;23;20092;-86
2021/08/21 05:20:50;;;;;;;21.27;13.20;;;14.50;99.90;;;16.07;100.00;100814.59;6136178;23;20006;-87
2021/08/21 05:23:15;;;;;;;18.35;13.13;;;14.60;99.90;;;16.25;100.00;100815.53;6161634;23;20051;-85
2021/08/21 05:25:48;;;;;;;21.23;14.23;;;14.70;99.90;;;16.27;100.00;100813.13;6160689;23;20021;-86
2021/08/21 05:28:18;;;;;;;18.55;12.27;;;14.90;99.90;;;16.41;100.00;100804.75;6164931;23;20474;-88
2021/08/21 05:30:45;;;;;;;20.45;13.27;;;14.90;99.90;;;16.52;100.00;100810.47;6144232;23;20006;-88
2021/08/21 05:33:17;;;;;;;14.25;10.30;;;15.00;99.90;;;16.61;100.00;100811.75;6166230;23;20025;-88
2021/08/21 05:35:44;;;;;;;12.60;9.30;;;15.10;99.90;;;16.70;100.00;100820.66;6165756;23;20068;-88
2021/08/21 05:38:11;;;;;;;15.68;10.55;;;15.20;99.90;;;16.76;100.00;100813.44;6166674;23;20021;-87
2021/08/21 05:40:39;;;;;;;14.43;10.70;;;15.20;99.90;;;16.85;100.00;100813.91;6163921;23;20065;-85
2021/08/21 05:43:06;;;;;;;13.60;9.77;;;15.30;99.90;;;16.97;100.00;100824.00;6162992;23;20331;-85
2021/08/21 05:45:32;;;;;;;11.07;8.82;;;15.40;99.90;;;17.06;100.00;100815.97;6161232;23;20009;-85
2021/08/21 05:47:59;;;;;;;10.18;8.57;;;15.50;99.90;;;17.20;100.00;100803.91;6163351;23;20012;-85
2021/08/21 05:50:25;;;;;;;14.23;11.05;;;15.60;99.90;;;17.30;100.00;100809.59;6165196;23;20012;-88
2021/08/21 05:52:51;;;;;;;11.35;8.50;;;15.80;99.90;;;17.42;100.00;100804.78;6138995;23;20009;-87
2021/08/21 05:55:19;;;;;;;18.08;10.10;;;15.90;99.90;;;17.51;100.00;100813.66;6162958;23;20040;-86
2021/08/21 05:57:45;;;;;;;14.90;10.70;;;15.90;99.90;;;17.55;100.00;100806.84;6161947;23;20009;-85
2021/08/21 06:00:12;;;;;;;14.52;9.73;;;16.00;99.90;;;17.58;100.00;100811.69;6163265;23;20002;-86
2021/08/21 06:02:38;;;;;;;10.50;8.50;;;16.00;99.90;;;17.65;100.00;100813.72;6139516;23;20016;-86
2021/08/21 06:05:05;;;;;;;11.43;9.23;;;16.00;99.90;;;17.71;100.00;100815.72;6164285;23;20005;-86
2021/08/21 06:07:32;;;;;;;11.13;8.50;;;16.10;99.90;;;17.75;100.00;100812.91;6163359;23;20010;-86
2021/08/21 06:09:58;;;;;;;9.05;7.72;;;16.20;99.90;;;17.79;100.00;100817.34;6140314;23;20017;-87
2021/08/21 06:12:24;;;;;;;12.23;8.15;;;16.30;99.90;;;17.87;100.00;100818.16;6164140;23;20005;-86
2021/08/21 06:14:51;;;;;;;12.20;8.75;;;16.30;99.90;;;17.84;100.00;100811.31;6163947;23;20392;-87
2021/08/21 06:17:18;;;;;;;11.40;8.60;;;16.30;99.90;;;17.91;100.00;100821.78;6164197;23;20013;-86
2021/08/21 06:19:44;;;;;;;9.88;7.90;;;16.40;99.90;;;17.97;100.00;100813.72;6165223;23;20017;-86
2021/08/21 06:22:10;;;;;;;11.05;8.15;;;16.40;99.90;;;18.07;100.00;100818.56;6163550;23;20009;-85
2021/08/21 06:24:37;;;;;;;11.00;8.00;;;16.50;99.90;;;18.15;100.00;100817.31;6161388;23;20020;-86
2021/08/21 06:27:03;;;;;;;7.93;6.90;;;16.50;99.90;;;18.22;100.00;100815.31;6140746;23;20014;-86
2021/08/21 06:29:34;;;;;;;8.95;7.50;;;16.60;99.90;;;18.31;99.46;100824.16;6165658;23;20029;-85
2021/08/21 06:32:06;;;;;;;11.77;6.82;;;16.70;99.90;;;18.33;99.32;100820.97;6168154;23;20013;-85
2021/08/21 06:34:36;;;;;;;11.23;7.35;;;16.70;99.90;;;18.39;99.16;100814.47;6168942;23;20017;-86
2021/08/21 06:37:05;;;;;;;9.38;6.63;;;16.80;99.90;;;18.47;99.22;100820.91;6167713;23;20061;-85
2021/08/21 06:39:33;;;;;;;10.45;8.13;;;16.90;99.90;;;18.55;98.79;100813.25;6165946;23;20012;-88
2021/08/21 06:42:00;;;;;;;9.57;8.13;;;17.00;99.90;;;18.64;98.44;100814.44;6163417;23;20010;-86
2021/08/21 06:44:29;;;;;;;9.55;6.97;;;17.10;99.90;;;18.77;98.30;100814.78;6161456;23;20335;-86
2021/08/21 06:46:58;;;;;;;8.95;7.18;;;17.10;99.90;;;18.94;97.80;100814.69;6171199;23;20005;-88
2021/08/21 06:49:24;;;;;;;7.47;6.30;;;17.20;99.90;;;19.15;97.43;100815.81;6172228;23;20081;-86
2021/08/21 06:51:50;;;;;;;9.32;6.53;;;17.50;99.90;;;19.34;97.03;100815.31;6169658;23;20058;-87
2021/08/21 06:54:16;;;;;;;10.35;6.75;;;17.60;99.90;;;19.51;95.84;100825.78;6166882;23;20020;-86
2021/08/21 06:56:42;;;;;;;7.18;6.18;;;17.70;99.90;;;19.68;95.24;100821.22;6141910;23;20015;-86
2021/08/21 06:59:08;;;;;;;9.13;7.22;;;17.90;99.90;;;19.79;94.57;100817.06;6140288;23;20037;-86
2021/08/21 07:01:39;;;;;;;7.93;6.07;;;18.10;99.90;;;19.90;94.12;100826.28;6168417;23;20063;-87
2021/08/21 07:04:05;;;;;;;10.38;7.10;;;18.10;99.90;;;19.98;93.35;100822.16;6194952;23;20032;-86
2021/08/21 07:06:31;;;;;;;10.52;6.80;;;18.20;99.90;;;20.07;93.17;100823.72;6164192;23;20088;-86
2021/08/21 07:08:57;;;;;;;10.45;7.43;;;18.30;99.90;;;20.07;92.53;100823.72;6166384;23;20016;-86
2021/08/21 07:11:23;;;;;;;8.52;7.22;;;18.40;99.90;;;20.10;92.55;100822.88;6192725;23;20159;-86
2021/08/21 07:13:50;;;;;;;9.35;7.80;;;18.40;99.90;;;20.13;92.10;100828.50;6192293;23;20016;-87
2021/08/21 07:16:16;;;;;;;9.30;6.97;;;18.50;99.90;;;20.27;92.15;100822.72;6193646;23;20001;-85
2021/08/21 07:18:42;;;;;;;8.77;5.93;;;18.50;99.90;;;20.48;91.61;100827.41;6191639;23;20005;-87
2021/08/21 07:21:10;;;;;;;10.13;7.45;;;18.70;99.90;;;20.55;90.26;100820.84;6193614;23;20009;-87
2021/08/21 07:23:38;;;;;;;8.85;6.45;;;18.80;99.90;;;20.69;89.21;100823.50;6192582;23;20058;-88
2021/08/21 07:26:04;;;;;;;9.00;6.38;;;18.90;99.90;;;20.83;89.43;100817.69;6184045;23;20016;-83
2021/08/21 07:28:31;;;;;;;10.38;7.82;;;19.10;99.90;;;20.98;88.60;100817.06;6203132;23;20386;-87
2021/08/21 07:30:57;;;;;;;11.73;7.95;;;19.20;99.90;;;21.08;86.89;100820.19;6191801;23;20009;-86
2021/08/21 07:33:23;;;;;;;11.85;7.72;;;19.30;99.90;;;21.16;86.76;100816.06;6190742;23;20013;-86
2021/08/21 07:35:49;;;;;;;13.35;8.02;;;19.40;99.90;;;21.28;86.09;100821.97;6191709;23;20010;-84
2021/08/21 07:38:15;;;;;;;9.68;7.10;;;19.50;99.90;;;21.40;85.40;100821.41;6189203;23;20005;-87
2021/08/21 07:40:41;;;;;;;8.30;6.53;;;19.60;99.90;;;21.50;86.31;100825.31;6189069;23;20100;-86
2021/08/21 07:43:07;;;;;;;8.70;7.15;;;19.70;99.90;;;21.60;85.97;100815.81;6165142;23;20005;-83
2021/08/21 07:45:34;;;;;;;14.75;9.63;;;19.80;99.90;;;21.58;82.01;100826.03;6166646;23;20042;-86
2021/08/21 07:48:00;;;;;;;9.95;6.75;;;19.90;99.90;;;21.70;83.40;100814.06;6192559;23;20005;-86
2021/08/21 07:50:25;;;;;;;8.40;6.75;;;19.90;99.90;;;21.82;83.16;100827.66;6167695;23;20005;-84
2021/08/21 07:52:52;;;;;;;9.50;6.70;;;20.00;99.90;;;22.01;81.91;100822.09;6192746;23;20009;-87
2021/08/21 07:55:18;;;;;;;10.45;7.18;;;20.10;99.90;;;22.17;81.59;100826.28;6193666;23;20001;-85
2021/08/21 07:57:44;;;;;;;8.13;6.75;;;20.30;99.90;;;22.33;80.33;100832.09;6168917;23;20008;-89
2021/08/21 08:00:11;;;;;;;12.55;7.43;;;20.40;99.90;;;22.56;78.90;100829.22;6194511;23;20008;-88
2021/08/21 08:02:36;;;;;;;9.18;6.60;;;20.60;99.90;;;22.81;78.34;100829.56;6167593;23;20064;-89
2021/08/21 08:05:08;;;;;;;8.05;5.60;;;20.90;99.90;;;23.06;78.10;100838.41;6167786;23;20036;-86
2021/08/21 08:07:34;;;;;;;8.68;6.72;;;21.10;99.90;;;23.28;76.32;100843.66;6194444;23;20071;-85
2021/08/21 08:10:00;;;;;;;9.50;7.60;;;21.20;99.90;;;23.29;75.22;100848.09;6164696;23;20011;-82
2021/08/21 08:12:26;;;;;;;11.15;7.03;;;21.30;99.90;;;23.41;74.46;100838.88;6190381;23;20009;-84
2021/08/21 08:14:52;;;;;;;8.10;6.13;;;21.40;99.90;;;23.55;74.00;100852.84;6194417;23;20044;-86
2021/08/21 08:17:17;;;;;;;11.18;7.30;;;21.60;99.90;;;23.70;72.66;100851.25;6193819;23;20005;-86
2021/08/21 08:19:43;;;;;;;9.55;7.07;;;21.70;99.90;;;23.75;72.38;100844.22;6193124;23;20033;-84
2021/08/21 08:22:11;;;;;;;8.15;6.30;;;21.80;99.90;;;23.91;72.40;100841.38;6190309;23;20037;-85
2021/08/21 08:24:46;;;;;;;7.68;4.88;;;21.90;99.90;;;24.09;71.53;100839.69;6169871;23;20005;-83
2021/08/21 08:27:15;;;;;;;;;;;22.00;99.90;;;24.23;70.09;100849.97;6190640;23;20019;-86
2021/08/21 08:29:42;;;;;;;10.70;6.38;;;22.10;99.90;;;24.33;70.58;100843.19;6191575;23;19907;-84
2021/08/21 08:32:08;;;;;;;6.82;5.18;;;22.20;99.90;;;24.47;70.72;100842.00;6189112;23;20431;-84
2021/08/21 08:34:33;;;;;;;6.30;4.50;;;22.30;99.90;;;24.71;69.24;100845.44;6190075;23;20069;-86
2021/08/21 08:36:59;;;;;;;9.13;6.75;;;22.50;99.90;;;24.95;67.67;100843.94;6191813;23;20012;-86
2021/08/21 08:39:25;;;;;;;9.00;6.82;;;22.70;99.90;;;24.90;65.81;100848.16;6189506;23;20017;-85
2021/08/21 08:41:52;;;;;;;8.20;5.40;;;22.90;99.90;;;25.29;67.20;100847.03;6162713;23;20009;-86
2021/08/21 08:44:24;;;;;;;9.95;6.15;;;23.10;99.90;;;25.49;64.64;100846.81;6189325;23;20001;-85
2021/08/21 08:46:52;;;;;;;6.95;4.53;;;23.40;99.90;;;25.85;64.35;100837.94;6188811;23;20009;-85
2021/08/21 08:49:19;;;;;;;7.35;4.65;;;23.60;99.90;;;26.05;62.75;100842.16;6189925;23;20099;-84
2021/08/21 08:51:45;;;;;;;8.10;5.50;;;23.80;99.90;;;26.16;61.05;100836.91;6192534;23;20015;-84
2021/08/21 08:54:11;;;;;;;7.80;5.18;;;23.90;99.90;;;26.30;59.50;100844.19;6197140;23;20089;-84
2021/08/21 08:56:38;;;;;;;6.22;3.92;;;24.10;99.90;;;26.50;60.33;100841.03;6196681;23;20039;-86
2021/08/21 08:59:04;;;;;;;4.95;3.92;;;24.20;99.90;;;26.55;61.07;100844.13;6168914;23;20032;-87
2021/08/21 09:01:40;;;;;;;7.60;4.32;;;24.30;99.90;;;26.66;60.41;100838.81;6164697;23;20013;-87
2021/08/21 09:04:23;;;;;;;4.82;3.83;;;24.30;99.90;;;26.85;59.83;100845.53;6142511;23;20011;-85
2021/08/21 09:06:50;;;;;;;7.18;4.50;;;24.40;99.90;;;26.84;57.52;100846.81;6166967;23;20041;-84
2021/08/21 09:09:22;;;;;;;8.32;3.92;;;24.50;99.90;;;26.92;56.46;100851.00;6141485;23;20010;-84
2021/08/21 09:11:55;;;;;;;6.57;3.53;;;24.60;99.90;;;26.92;56.69;100853.06;6166197;23;20069;-90
2021/08/21 09:14:31;;;;;;;8.32;4.15;;;24.60;99.90;;;26.65;56.63;100851.53;6138510;23;20064;-87
2021/08/21 09:17:20;;;;;;;6.53;4.32;;;24.40;99.90;;;26.56;56.79;100850.66;6161300;23;20052;-87
2021/08/21 09:20:03;;;;;;;5.35;3.47;;;24.40;99.90;;;26.63;58.91;100844.66;6166785;23;20005;-86
2021/08/21 09:22:29;;;;;;;5.38;4.05;;;24.40;99.90;;;26.85;57.84;100847.59;6140987;23;20031;-86
2021/08/21 09:24:55;;;;;;;8.88;4.70;;;24.50;99.90;;;27.00;56.09;100845.81;6165950;23;20008;-85
2021/08/21 09:27:25;;;;;;;6.53;4.53;;;24.60;99.90;;;27.19;56.53;100850.41;6165929;23;20016;-87
2021/08/21 09:30:17;;;;;;;6.82;3.20;;;24.70;99.90;;;27.43;55.30;100839.22;6142736;23;20023;-88
2021/08/21 09:32:45;;;;;;;5.30;3.67;;;24.90;99.90;;;27.42;54.92;100849.13;6143522;23;20036;-83
2021/08/21 09:35:14;;;;;;;5.03;3.15;;;25.00;99.90;;;27.42;54.76;100846.25;6150585;23;20052;-84
2021/08/21 09:37:57;;;;;;;6.13;3.88;;;24.90;99.90;;;27.53;54.36;100841.72;6149920;23;20090;-88
2021/08/21 09:40:33;;;;;;;5.20;3.45;;;25.00;99.90;;;27.22;52.74;100846.59;6141014;23;20057;-88
2021/08/21 09:43:01;;;;;;;4.45;2.70;;;25.00;99.90;;;27.49;53.44;100835.31;6136514;23;20012;-86
2021/08/21 09:45:28;;;;;;;8.63;3.00;;;25.10;99.90;;;27.55;51.45;100832.66;6175432;23;19985;-83
2021/08/21 09:48:16;;;;;;;3.92;2.92;;;25.10;99.90;;;27.96;51.69;100832.19;6150836;23;20036;-85
2021/08/21 09:50:44;;;;;;;4.85;2.58;;;25.40;99.90;;;28.22;50.22;100833.53;6137396;23;20017;-83
2021/08/21 09:53:12;;;;;;;3.13;2.53;;;25.50;99.90;;;28.62;49.23;100832.63;6137765;23;20009;-85
2021/08/21 09:55:40;;;;;;;4.35;2.70;;;25.80;99.90;;;29.29;47.45;100829.59;6136980;23;20069;-87
2021/08/21 09:58:15;;;;;;;3.40;2.20;;;26.30;99.90;;;29.89;46.62;100831.66;6165106;23;20126;-86
2021/08/21 10:00:43;;;;;;;;;;;26.80;99.90;;;30.07;44.59;100823.72;6145172;23;20013;-87
2021/08/21 10:03:10;;;;;;;5.32;2.67;;;27.20;99.00;;;30.21;44.21;100825.06;6195740;23;19911;-85
2021/08/21 10:05:36;;;;;;;3.35;2.45;;;27.20;96.60;;;30.11;45.02;100827.22;6168887;23;20015;-89